Time;durP1;ratioP1;P1;durP2;ratioP2;P2;SDS_P1;SDS_P2;PMS_P1;PMS_P2;Temp;Humidity;BMP_temperature;BMP_pressure;BME280_temperature;BME280_humidity;BME280_pressure;Samples;Min_cycle;Max_cycle;Signal;HPM_P1;HPM_P2
2020/12/31 00:01:27;;;;;;;3.22;1.73;;;;;;;19.69;40.61;98740.53;5051248;28;20041;-80
2020/12/31 00:03:54;;;;;;;2.28;1.42;;;;;;;19.70;40.55;98737.00;5035237;28;20033;-75
2020/12/31 00:06:19;;;;;;;3.33;1.70;;;;;;;19.69;40.47;98725.66;5035171;28;20044;-78
2020/12/31 00:08:45;;;;;;;3.60;1.67;;;;;;;19.68;40.64;98723.06;5035267;28;20033;-80
2020/12/31 00:11:12;;;;;;;2.45;1.77;;;;;;;19.68;40.50;98723.06;5052021;28;20087;-78
2020/12/31 00:13:39;;;;;;;3.40;1.83;;;;;;;19.67;40.44;98719.59;5034869;28;20037;-81
2020/12/31 00:16:05;;;;;;;3.50;1.70;;;;;;;19.68;40.62;98730.94;5034661;28;20029;-78
2020/12/31 00:18:31;;;;;;;2.75;1.58;;;;;;;19.66;40.59;98715.25;5033851;28;20033;-78
2020/12/31 00:20:56;;;;;;;3.00;1.55;;;;;;;19.68;40.61;98715.19;5049922;28;20113;-78
2020/12/31 00:23:22;;;;;;;2.95;1.33;;;;;;;19.69;40.40;98714.25;5051627;28;20073;-80
2020/12/31 00:25:52;;;;;;;2.35;1.30;;;;;;;19.67;40.51;98713.47;5034326;28;20030;-80
2020/12/31 00:28:19;;;;;;;2.00;1.40;;;;;;;19.69;40.64;98716.88;5034487;28;20029;-80
2020/12/31 00:30:45;;;;;;;2.63;1.73;;;;;;;19.67;40.48;98708.22;5032990;28;20033;-77
2020/12/31 00:33:20;;;;;;;3.17;1.67;;;;;;;19.67;40.35;98706.47;5032659;28;20065;-78
2020/12/31 00:35:54;;;;;;;3.13;1.52;;;;;;;19.67;40.15;98700.34;5050203;28;20040;-80
2020/12/31 00:38:20;;;;;;;2.47;1.30;;;;;;;19.67;40.57;98698.56;5050776;28;20033;-77
2020/12/31 00:40:46;;;;;;;2.00;1.30;;;;;;;19.65;40.02;98697.78;5051443;28;20040;-80
2020/12/31 00:43:12;;;;;;;2.03;1.30;;;;;;;19.67;40.59;98708.22;5032869;28;20063;-79
2020/12/31 00:45:37;;;;;;;4.07;1.45;;;;;;;19.67;40.30;98705.59;5050895;28;20444;-80
2020/12/31 00:48:03;;;;;;;2.40;1.38;;;;;;;19.68;40.50;98709.94;5050820;28;20370;-80
2020/12/31 00:50:29;;;;;;;2.50;1.40;;;;;;;19.64;40.40;98706.59;5034094;28;20044;-78
2020/12/31 00:52:54;;;;;;;1.77;1.23;;;;;;;19.67;40.13;98710.84;5052319;28;20083;-81
2020/12/31 00:55:20;;;;;;;1.98;1.25;;;;;;;19.65;40.54;98700.41;5051690;28;20033;-80
2020/12/31 00:57:45;;;;;;;2.00;1.30;;;;;;;19.64;40.51;98703.94;5050451;28;20062;-78
2020/12/31 01:00:12;;;;;;;2.00;1.15;;;;;;;19.63;40.79;98697.00;5050818;28;20497;-80
2020/12/31 01:02:39;;;;;;;1.45;0.98;;;;;;;19.66;40.41;98703.88;5034038;28;20079;-80
2020/12/31 01:05:08;;;;;;;1.30;1.10;;;;;;;19.66;40.35;98696.88;5052185;28;20032;-80
2020/12/31 01:07:34;;;;;;;2.13;1.40;;;;;;;19.65;40.26;98697.78;5050475;28;20390;-77
2020/12/31 01:09:59;;;;;;;2.58;1.35;;;;;;;19.64;40.50;98690.81;5033943;28;20048;-77
2020/12/31 01:12:25;;;;;;;1.77;1.10;;;;;;;19.64;40.44;98690.81;5033584;28;20033;-81
2020/12/31 01:14:50;;;;;;;1.58;1.00;;;;;;;19.66;40.31;98696.00;5033892;28;20051;-79
2020/12/31 01:17:15;;;;;;;2.33;1.20;;;;;;;19.65;40.37;98692.53;5033774;28;20025;-78
2020/12/31 01:19:41;;;;;;;1.27;1.00;;;;;;;19.64;40.42;98688.19;5049795;28;20037;-80
2020/12/31 01:22:06;;;;;;;1.92;1.20;;;;;;;19.66;40.36;98693.38;5050462;28;20055;-79
2020/12/31 01:24:31;;;;;;;1.00;0.88;;;;;;;19.65;40.52;98689.03;5050392;28;20440;-78
2020/12/31 01:26:57;;;;;;;2.13;1.17;;;;;;;19.66;40.28;98691.59;5051411;28;20106;-79
2020/12/31 01:29:22;;;;;;;1.63;0.98;;;;;;;19.63;40.49;98684.69;5033471;28;20028;-80
2020/12/31 01:31:48;;;;;;;1.65;1.05;;;;;;;19.65;40.24;98687.28;5032923;28;20044;-80
2020/12/31 01:34:14;;;;;;;1.15;0.70;;;;;;;19.62;40.40;98690.88;5051677;28;20040;-77
2020/12/31 01:36:39;;;;;;;1.55;0.93;;;;;;;19.62;40.27;98701.38;5033712;28;20033;-80
2020/12/31 01:39:04;;;;;;;2.13;0.98;;;;;;;19.63;40.18;98692.56;5033850;28;20021;-78
2020/12/31 01:41:30;;;;;;;1.85;1.08;;;;;;;19.61;40.02;98681.31;5033231;28;20131;-79
2020/12/31 01:44:07;;;;;;;1.45;1.00;;;;;;;19.62;40.27;98692.66;5049655;28;20065;-78
2020/12/31 01:46:35;;;;;;;1.10;0.90;;;;;;;19.62;40.56;98685.59;5033765;28;20048;-78
2020/12/31 01:49:03;;;;;;;1.20;0.80;;;;;;;19.60;40.37;98684.84;5032342;28;20044;-79
2020/12/31 01:51:30;;;;;;;1.17;0.82;;;;;;;19.62;40.12;98682.97;5033065;28;20063;-76
2020/12/31 01:53:57;;;;;;;1.75;0.60;;;;;;;19.62;40.33;98682.13;5048866;28;20115;-78
2020/12/31 01:56:33;;;;;;;1.60;0.90;;;;;;;19.62;40.20;98684.75;5049408;28;20033;-80
2020/12/31 01:59:00;;;;;;;1.05;0.80;;;;;;;19.63;40.26;98675.97;5032971;28;20501;-79
2020/12/31 02:01:26;;;;;;;0.98;0.80;;;;;;;19.60;40.27;98679.59;5032677;28;20127;-82
2020/12/31 02:03:57;;;;;;;1.60;0.85;;;;;;;19.61;40.33;98678.66;5049055;28;20039;-80
2020/12/31 02:06:24;;;;;;;1.20;0.90;;;;;;;19.60;40.24;98682.22;5032708;28;20378;-81
2020/12/31 02:08:50;;;;;;;1.73;0.98;;;;;;;19.59;40.07;98680.50;5049582;28;20082;-78
2020/12/31 02:11:17;;;;;;;1.15;0.85;;;;;;;19.60;40.14;98676.97;5049863;28;20068;-78
2020/12/31 02:13:44;;;;;;;1.63;1.17;;;;;;;19.60;40.11;98676.97;5049189;28;20374;-77
2020/12/31 02:16:13;;;;;;;1.08;0.80;;;;;;;19.60;40.26;98676.97;5049161;28;20039;-80
2020/12/31 02:18:55;;;;;;;1.27;0.85;;;;;;;19.59;40.39;98674.38;5032643;28;20581;-79
2020/12/31 02:21:24;;;;;;;1.42;0.70;;;;;;;19.62;40.06;98674.25;5032405;28;20126;-79
2020/12/31 02:23:50;;;;;;;1.48;0.77;;;;;;;19.60;40.11;98676.09;5033026;28;20110;-77
2020/12/31 02:26:15;;;;;;;0.98;0.65;;;;;;;19.59;40.06;98670.00;5048700;28;20040;-77
2020/12/31 02:28:41;;;;;;;1.00;0.68;;;;;;;19.58;40.42;98670.91;5050751;28;20037;-80
2020/12/31 02:31:06;;;;;;;1.30;0.90;;;;;;;19.60;40.45;98668.22;5049510;28;20036;-81
2020/12/31 02:33:32;;;;;;;0.55;0.40;;;;;;;19.60;40.09;98663.81;5049374;28;20029;-79
2020/12/31 02:35:57;;;;;;;1.05;0.80;;;;;;;19.61;40.12;98667.28;5033066;28;20025;-75
2020/12/31 02:38:23;;;;;;;0.70;0.70;;;;;;;19.60;40.32;98668.22;5049271;28;20030;-77
2020/12/31 02:40:48;;;;;;;0.80;0.63;;;;;;;19.59;39.95;98663.88;5049161;28;20120;-80
2020/12/31 02:43:14;;;;;;;0.68;0.60;;;;;;;19.61;40.38;98668.16;5032497;28;20068;-76
2020/12/31 02:45:39;;;;;;;0.73;0.57;;;;;;;19.58;40.00;98659.53;5049334;28;20072;-79
2020/12/31 02:48:04;;;;;;;0.88;0.60;;;;;;;19.59;40.41;98663.88;5049371;28;20041;-80
2020/12/31 02:50:30;;;;;;;0.85;0.70;;;;;;;19.58;40.21;98656.91;5048994;28;20067;-77
2020/12/31 02:52:55;;;;;;;0.60;0.52;;;;;;;19.56;40.24;98650.84;5049178;28;20072;-77
2020/12/31 02:55:20;;;;;;;1.17;0.63;;;;;;;19.55;40.11;98643.91;5032609;28;20033;-78
2020/12/31 02:57:46;;;;;;;1.08;0.80;;;;;;;19.55;40.09;98647.41;5032872;28;20025;-78
2020/12/31 03:00:11;;;;;;;0.80;0.60;;;;;;;19.54;39.94;98640.44;5032357;28;20029;-77
2020/12/31 03:02:36;;;;;;;0.90;0.70;;;;;;;19.56;40.17;98640.34;5049312;28;20033;-80
2020/12/31 03:05:02;;;;;;;0.60;0.60;;;;;;;19.55;40.11;98641.25;5050508;28;20079;-80
2020/12/31 03:07:27;;;;;;;0.80;0.50;;;;;;;19.55;40.25;98638.63;5052878;28;20039;-80
2020/12/31 03:09:53;;;;;;;1.17;0.47;;;;;;;19.55;40.17;98641.25;5052581;28;20519;-78
2020/12/31 03:12:18;;;;;;;0.52;0.47;;;;;;;19.56;40.18;98637.72;5053026;28;20068;-80
2020/12/31 03:14:43;;;;;;;1.05;0.52;;;;;;;19.56;39.92;98645.59;5036071;28;20033;-77
2020/12/31 03:17:09;;;;;;;0.90;0.50;;;;;;;19.56;40.30;98635.09;5052790;28;20041;-76
2020/12/31 03:19:34;;;;;;;0.63;0.60;;;;;;;19.55;39.98;98630.75;5052478;28;20045;-79
2020/12/31 03:22:00;;;;;;;0.98;0.60;;;;;;;19.55;40.03;98629.00;5053022;28;20069;-79
2020/12/31 03:24:25;;;;;;;1.52;0.77;;;;;;;19.56;40.09;98635.97;5052209;28;20099;-76
2020/12/31 03:26:50;;;;;;;1.08;0.70;;;;;;;19.56;40.07;98629.84;5052761;28;20028;-79
2020/12/31 03:29:17;;;;;;;0.70;0.60;;;;;;;19.56;40.25;98632.47;5035808;28;20035;-79
2020/12/31 03:31:42;;;;;;;0.68;0.68;;;;;;;19.55;40.14;98617.63;5052209;28;20025;-78
2020/12/31 03:34:08;;;;;;;0.55;0.50;;;;;;;19.55;39.99;98615.88;5035816;28;20029;-80
2020/12/31 03:36:33;;;;;;;0.50;0.50;;;;;;;19.56;40.08;98609.69;5035695;28;20033;-81
2020/12/31 03:38:59;;;;;;;0.77;0.60;;;;;;;19.57;40.23;98605.28;5052256;28;20039;-79
2020/12/31 03:41:24;;;;;;;0.40;0.40;;;;;;;19.56;40.17;98604.44;5036749;28;20119;-79
2020/12/31 03:43:49;;;;;;;0.60;0.52;;;;;;;19.55;40.03;98601.84;5052312;28;20574;-79
2020/12/31 03:46:15;;;;;;;0.60;0.60;;;;;;;19.55;39.99;98593.97;5035758;28;20120;-80
2020/12/31 03:48:40;;;;;;;0.85;0.60;;;;;;;19.55;40.17;98593.97;5052814;28;20037;-80
2020/12/31 03:51:06;;;;;;;0.60;0.50;;;;;;;19.55;40.12;98594.84;5052174;28;20044;-78
2020/12/31 03:53:31;;;;;;;0.65;0.65;;;;;;;19.54;40.11;98590.50;5035500;28;20071;-78
2020/12/31 03:55:57;;;;;;;0.88;0.80;;;;;;;19.53;40.24;98588.81;5035433;28;20029;-79
2020/12/31 03:58:22;;;;;;;0.50;0.50;;;;;;;19.55;39.97;98583.47;5053377;28;20477;-79
2020/12/31 04:00:48;;;;;;;0.70;0.57;;;;;;;19.54;39.78;98564.22;5051774;28;20035;-79
2020/12/31 04:03:13;;;;;;;1.20;0.63;;;;;;;19.54;40.15;98568.66;5051630;28;20033;-79
2020/12/31 04:05:38;;;;;;;0.85;0.63;;;;;;;19.55;39.89;98567.69;5051945;28;20036;-77
2020/12/31 04:08:04;;;;;;;1.15;0.50;;;;;;;19.54;40.10;98561.59;5034678;28;20033;-78
2020/12/31 04:10:29;;;;;;;0.85;0.80;;;;;;;19.56;39.87;98558.91;5035148;28;20405;-80
2020/12/31 04:12:54;;;;;;;0.57;0.50;;;;;;;19.53;39.63;98554.66;5035048;28;20036;-80
2020/12/31 04:15:20;;;;;;;1.30;0.50;;;;;;;19.53;39.99;98553.81;5035416;28;20033;-76
2020/12/31 04:17:46;;;;;;;0.82;0.63;;;;;;;19.53;40.12;98551.19;5051489;28;20037;-80
2020/12/31 04:20:12;;;;;;;1.25;0.50;;;;;;;19.53;40.00;98535.41;5051138;28;20041;-78
2020/12/31 04:22:38;;;;;;;0.32;0.32;;;;;;;19.53;39.93;98545.91;5052476;28;20120;-74
2020/12/31 04:25:03;;;;;;;0.95;0.50;;;;;;;19.52;39.87;98539.81;5052017;28;20060;-77
2020/12/31 04:27:29;;;;;;;0.52;0.52;;;;;;;19.53;39.72;98544.13;5051418;28;20137;-78
2020/12/31 04:29:54;;;;;;;0.40;0.40;;;;;;;19.52;39.87;98529.28;5052296;28;20048;-77
2020/12/31 04:32:20;;;;;;;0.60;0.50;;;;;;;19.51;39.98;98526.75;5034618;28;20452;-78
2020/12/31 04:34:45;;;;;;;0.55;0.43;;;;;;;19.51;39.83;98524.94;5051990;28;20056;-78
2020/12/31 04:37:11;;;;;;;1.55;0.70;;;;;;;19.52;39.84;98521.41;5034525;28;20120;-80
2020/12/31 04:39:36;;;;;;;0.80;0.50;;;;;;;19.53;40.09;98520.50;5052616;28;20036;-77
2020/12/31 04:42:02;;;;;;;0.40;0.40;;;;;;;19.53;39.83;98511.78;5052199;28;20036;-81
2020/12/31 04:44:28;;;;;;;0.45;0.45;;;;;;;19.51;39.90;98509.19;5050837;28;20486;-79
2020/12/31 04:46:56;;;;;;;0.40;0.40;;;;;;;19.52;40.06;98503.03;5052095;28;20553;-79
2020/12/31 04:49:35;;;;;;;0.40;0.40;;;;;;;19.51;39.96;98497.84;5050805;28;20041;-78
2020/12/31 04:52:01;;;;;;;0.32;0.32;;;;;;;19.51;39.76;98496.06;5050058;28;20041;-78
2020/12/31 04:54:27;;;;;;;0.75;0.50;;;;;;;19.52;40.06;98494.28;5051047;28;20528;-79
2020/12/31 04:56:54;;;;;;;0.52;0.50;;;;;;;19.51;39.86;98503.94;5034123;28;20513;-74
2020/12/31 04:59:19;;;;;;;0.93;0.60;;;;;;;19.52;39.86;98503.03;5032689;28;20024;-78
2020/12/31 05:01:47;;;;;;;0.32;0.30;;;;;;;19.53;40.06;98496.00;5049010;28;20068;-76
2020/12/31 05:04:13;;;;;;;0.73;0.47;;;;;;;19.48;39.80;98497.06;5048502;28;20116;-78
2020/12/31 05:06:39;;;;;;;0.65;0.50;;;;;;;19.49;39.60;98492.63;5049547;28;20112;-78
2020/12/31 05:09:15;;;;;;;0.47;0.40;;;;;;;19.50;39.60;98496.13;5049053;28;20056;-80
2020/12/31 05:11:48;;;;;;;0.55;0.50;;;;;;;19.45;39.84;98486.69;5032836;28;20075;-80
2020/12/31 05:14:30;;;;;;;0.38;0.38;;;;;;;19.45;40.03;98493.72;5049159;28;20033;-77
2020/12/31 05:16:56;;;;;;;0.40;0.40;;;;;;;19.47;39.73;98491.84;5049710;28;20032;-77
2020/12/31 05:19:23;;;;;;;0.40;0.38;;;;;;;19.47;39.69;98499.75;5032953;28;20513;-80
2020/12/31 05:21:49;;;;;;;0.38;0.38;;;;;;;19.47;39.88;98491.84;5033748;28;20040;-78
2020/12/31 05:24:15;;;;;;;0.65;0.30;;;;;;;19.46;39.76;98488.38;5050597;28;20095;-77
2020/12/31 05:26:41;;;;;;;0.20;0.20;;;;;;;19.50;39.94;98493.50;5049760;28;20037;-79
2020/12/31 05:29:07;;;;;;;0.40;0.40;;;;;;;19.48;39.99;98485.69;5033042;28;20029;-80
2020/12/31 05:31:54;;;;;;;0.55;0.40;;;;;;;19.48;39.41;98488.31;5051700;28;20041;-78
2020/12/31 05:34:32;;;;;;;0.30;0.30;;;;;;;19.48;39.88;98488.31;5033756;28;20040;-78
2020/12/31 05:37:14;;;;;;;0.28;0.28;;;;;;;19.47;40.09;98490.09;5050986;28;20037;-80
2020/12/31 05:39:56;;;;;;;0.55;0.40;;;;;;;19.47;39.98;98487.47;5051202;28;20409;-76
2020/12/31 05:42:23;;;;;;;0.50;0.40;;;;;;;19.48;39.67;98481.28;5050027;28;20485;-78
2020/12/31 05:45:04;;;;;;;0.30;0.30;;;;;;;19.48;39.87;98485.69;5050060;28;20029;-78
2020/12/31 05:47:31;;;;;;;0.40;0.30;;;;;;;19.46;39.57;98474.41;5049783;28;20055;-79
2020/12/31 05:49:56;;;;;;;0.38;0.38;;;;;;;19.46;39.83;98480.50;5032365;28;20111;-78
2020/12/31 05:52:36;;;;;;;0.30;0.30;;;;;;;19.46;39.59;98470.00;5033278;28;20440;-79
2020/12/31 05:55:04;;;;;;;0.38;0.30;;;;;;;19.48;39.89;98475.16;5049516;28;20029;-79
2020/12/31 05:57:42;;;;;;;0.70;0.40;;;;;;;19.46;39.92;98477.03;5050887;28;20111;-77
2020/12/31 06:00:11;;;;;;;1.08;0.40;;;;;;;19.46;39.82;98479.66;5048603;28;20505;-79
2020/12/31 06:02:45;;;;;;;0.60;0.50;;;;;;;19.46;39.93;98477.88;5032403;28;20033;-79
2020/12/31 06:05:15;;;;;;;0.40;0.35;;;;;;;19.46;39.81;98480.50;5032651;28;20083;-80
2020/12/31 06:07:45;;;;;;;0.30;0.30;;;;;;;19.46;39.66;98471.78;5032557;28;20060;-81
2020/12/31 06:10:14;;;;;;;0.32;0.32;;;;;;;19.48;39.67;98469.91;5049686;28;20091;-79
2020/12/31 06:12:56;;;;;;;0.43;0.43;;;;;;;19.47;39.91;98470.84;5050812;28;20033;-80
2020/12/31 06:15:37;;;;;;;0.40;0.30;;;;;;;19.46;39.76;98471.78;5032748;28;20493;-79
2020/12/31 06:18:04;;;;;;;0.50;0.40;;;;;;;19.47;39.78;98473.47;5049768;28;20501;-77
2020/12/31 06:20:31;;;;;;;0.43;0.40;;;;;;;19.45;39.76;98473.53;5048005;28;20052;-78
2020/12/31 06:23:04;;;;;;;0.30;0.30;;;;;;;19.45;39.76;98477.97;5048779;28;20032;-78
2020/12/31 06:25:40;;;;;;;1.48;0.50;;;;;;;19.46;39.76;98477.88;5031241;28;20033;-80
2020/12/31 06:28:08;;;;;;;0.30;0.30;;;;;;;19.45;39.79;98481.44;5048421;28;20037;-78
2020/12/31 06:30:35;;;;;;;0.20;0.20;;;;;;;19.46;39.34;98471.78;5048261;28;20036;-80
2020/12/31 06:33:11;;;;;;;0.28;0.28;;;;;;;19.46;39.86;98482.31;5048798;28;20060;-78
2020/12/31 06:35:39;;;;;;;0.22;0.22;;;;;;;19.43;39.50;98477.19;5049074;28;20025;-80
2020/12/31 06:38:04;;;;;;;1.48;0.60;;;;;;;19.46;39.48;98477.88;5051004;28;20051;-80
2020/12/31 06:40:32;;;;;;;0.40;0.40;;;;;;;19.46;39.94;98474.41;5049482;28;20592;-79
2020/12/31 06:43:13;;;;;;;0.25;0.25;;;;;;;19.46;39.86;98479.66;5052316;28;20029;-79
2020/12/31 06:45:44;;;;;;;0.30;0.30;;;;;;;19.45;39.56;98478.81;5052785;28;20021;-78
2020/12/31 06:48:25;;;;;;;0.80;0.30;;;;;;;19.44;39.60;98477.09;5052215;28;20039;-78
2020/12/31 06:50:57;;;;;;;0.25;0.25;;;;;;;19.45;39.59;98481.44;5036337;28;20056;-78
2020/12/31 06:53:45;;;;;;;0.30;0.30;;;;;;;19.45;39.60;98488.47;5053148;28;20036;-78
2020/12/31 06:56:12;;;;;;;0.30;0.30;;;;;;;19.45;39.61;98485.84;5052637;28;20041;-78
2020/12/31 06:58:39;;;;;;;0.38;0.30;;;;;;;19.45;39.60;98485.84;5036268;28;20032;-79
2020/12/31 07:01:30;;;;;;;0.25;0.25;;;;;;;19.44;39.70;98490.22;5036256;28;20036;-78
2020/12/31 07:03:56;;;;;;;0.35;0.32;;;;;;;19.45;39.49;98494.56;5036308;28;20550;-78
2020/12/31 07:06:22;;;;;;;0.40;0.40;;;;;;;19.46;39.80;98491.00;5052086;28;20036;-78
2020/12/31 07:08:52;;;;;;;0.30;0.30;;;;;;;19.45;39.75;98494.56;5036514;28;20033;-78
2020/12/31 07:11:41;;;;;;;0.50;0.50;;;;;;;19.45;39.70;98489.31;5053935;28;20048;-79
2020/12/31 07:14:18;;;;;;;0.90;0.70;;;;;;;19.46;39.54;98484.94;5053256;28;20139;-80
2020/12/31 07:17:00;;;;;;;0.50;0.50;;;;;;;19.45;39.76;98486.69;5052554;28;20383;-80
2020/12/31 07:19:33;;;;;;;0.88;0.70;;;;;;;19.46;39.56;98483.13;5052911;28;20053;-79
2020/12/31 07:21:58;;;;;;;0.63;0.50;;;;;;;19.47;39.60;98490.09;5052108;28;20041;-78
2020/12/31 07:24:28;;;;;;;0.80;0.70;;;;;;;19.48;39.60;98490.94;5053004;28;20386;-77
2020/12/31 07:26:56;;;;;;;1.02;0.90;;;;;;;19.47;39.43;98490.09;5033646;28;20033;-77
2020/12/31 07:29:32;;;;;;;1.98;0.80;;;;;;;19.46;39.56;98491.00;5033071;28;20078;-78
2020/12/31 07:31:59;;;;;;;1.73;0.70;;;;;;;19.47;39.68;98487.47;5033606;28;20033;-80
2020/12/31 07:34:29;;;;;;;2.45;0.80;;;;;;;19.48;39.83;98493.56;5052235;28;20033;-77
2020/12/31 07:37:04;;;;;;;0.95;0.80;;;;;;;19.47;39.53;98500.59;5053342;28;20037;-76
2020/12/31 07:39:32;;;;;;;3.63;1.00;;;;;;;19.50;39.58;98490.88;5053047;28;20032;-77
2020/12/31 07:42:17;;;;;;;2.92;1.00;;;;;;;19.50;39.59;98490.88;5035100;28;20040;-78
2020/12/31 07:44:54;;;;;;;0.65;0.60;;;;;;;19.52;39.53;98494.28;5050047;28;20033;-79
2020/12/31 07:47:22;;;;;;;1.15;0.70;;;;;;;19.50;39.77;98493.50;5051852;28;20111;-73
2020/12/31 07:49:52;;;;;;;1.48;0.50;;;;;;;19.51;39.71;98501.31;5051957;28;20040;-75
2020/12/31 07:52:19;;;;;;;1.88;0.93;;;;;;;19.53;39.54;98506.50;5051055;28;20068;-76
2020/12/31 07:54:45;;;;;;;0.70;0.70;;;;;;;19.53;39.65;98509.13;5053145;28;20032;-76
2020/12/31 07:57:12;;;;;;;1.10;0.70;;;;;;;19.53;39.52;98504.72;5052104;28;20036;-75
2020/12/31 07:59:47;;;;;;;4.60;0.90;;;;;;;19.53;39.49;98507.34;5052699;28;20112;-77
2020/12/31 08:02:16;;;;;;;1.27;0.70;;;;;;;19.55;39.68;98509.91;5052854;28;20029;-76
2020/12/31 08:04:42;;;;;;;0.70;0.70;;;;;;;19.56;39.70;98508.97;5051001;28;20129;-76
2020/12/31 08:07:17;;;;;;;1.05;0.70;;;;;;;19.56;39.42;98508.97;5052576;28;20041;-77
2020/12/31 08:09:47;;;;;;;0.90;0.82;;;;;;;19.56;39.61;98508.97;5050143;28;20044;-76
2020/12/31 08:12:12;;;;;;;13.38;1.00;;;;;;;19.57;39.61;98500.19;5051208;28;20103;-77
2020/12/31 08:14:39;;;;;;;1.00;0.60;;;;;;;19.57;39.91;98503.66;5052490;28;20037;-77
2020/12/31 08:17:04;;;;;;;0.77;0.70;;;;;;;19.58;39.75;98512.38;5052330;28;20068;-79
2020/12/31 08:19:31;;;;;;;2.05;0.77;;;;;;;19.58;39.88;98510.63;5051182;28;20047;-74
2020/12/31 08:22:06;;;;;;;0.60;0.52;;;;;;;19.59;39.76;98507.09;5051568;28;20044;-76
2020/12/31 08:24:34;;;;;;;1.40;0.70;;;;;;;19.59;39.73;98500.97;5051985;28;20039;-72
2020/12/31 08:27:00;;;;;;;0.70;0.60;;;;;;;19.58;39.57;98509.75;5050935;28;20037;-74
2020/12/31 08:29:27;;;;;;;1.13;0.85;;;;;;;19.60;39.70;98500.03;5051238;28;20029;-78
2020/12/31 08:31:54;;;;;;;1.65;0.60;;;;;;;19.60;39.86;98506.16;5050993;28;20036;-74
2020/12/31 08:34:35;;;;;;;0.65;0.60;;;;;;;19.60;39.63;98505.28;5052290;28;20116;-78
2020/12/31 08:37:00;;;;;;;0.95;0.73;;;;;;;19.60;39.47;98502.66;5052109;28;20073;-76
2020/12/31 08:39:28;;;;;;;0.68;0.60;;;;;;;19.60;39.54;98505.28;5051622;28;20037;-74
2020/12/31 08:41:58;;;;;;;0.70;0.60;;;;;;;19.59;39.56;98506.22;5051500;28;20501;-78
2020/12/31 08:44:25;;;;;;;1.77;0.63;;;;;;;19.60;39.69;98507.94;5050662;28;20021;-78
2020/12/31 08:46:51;;;;;;;0.70;0.60;;;;;;;19.58;39.66;98509.75;5051244;28;20068;-74
2020/12/31 08:49:26;;;;;;;1.52;0.70;;;;;;;19.58;39.42;98505.38;5051955;28;20126;-74
2020/12/31 08:51:53;;;;;;;0.85;0.65;;;;;;;19.60;39.65;98508.78;5051353;28;20111;-73
2020/12/31 08:54:20;;;;;;;1.00;0.68;;;;;;;19.60;39.76;98507.94;5051962;28;20037;-74
2020/12/31 08:56:46;;;;;;;0.57;0.50;;;;;;;19.60;39.63;98507.94;5051592;28;20040;-77
2020/12/31 08:59:16;;;;;;;0.73;0.50;;;;;;;19.60;39.46;98507.94;5050989;28;20040;-75
2020/12/31 09:01:46;;;;;;;0.70;0.50;;;;;;;19.62;39.63;98511.34;5050018;28;20520;-73
2020/12/31 09:04:16;;;;;;;0.60;0.60;;;;;;;19.61;39.75;98507.88;5050294;28;20029;-77
2020/12/31 09:06:44;;;;;;;2.22;0.70;;;;;;;19.61;39.62;98507.88;5051146;28;20036;-73
2020/12/31 09:09:18;;;;;;;0.98;0.70;;;;;;;19.62;39.52;98512.19;5051671;28;20037;-74
2020/12/31 09:11:56;;;;;;;0.47;0.40;;;;;;;19.62;39.54;98503.47;5050190;28;20037;-79
2020/12/31 09:14:22;;;;;;;1.02;0.65;;;;;;;19.81;39.71;98500.81;5049712;28;20122;-77
2020/12/31 09:16:48;;;;;;;3.25;0.73;;;;;;;19.95;39.66;98501.97;5051089;28;20060;-77
2020/12/31 09:19:13;;;;;;;6.70;1.20;;;;;;;20.04;39.86;98505.03;5033191;28;20043;-79
2020/12/31 09:21:38;;;;;;;8.95;1.30;;;;;;;20.06;40.30;98505.81;5050439;28;20045;-76
2020/12/31 09:24:17;;;;;;;2.67;1.25;;;;;;;20.05;40.77;98511.16;5050067;28;20037;-79
2020/12/31 09:26:57;;;;;;;9.40;1.30;;;;;;;20.01;40.92;98502.53;5050555;28;20048;-77
2020/12/31 09:29:24;;;;;;;7.20;1.10;;;;;;;19.97;41.19;98506.25;5050942;28;20060;-75
2020/12/31 09:31:50;;;;;;;5.00;1.42;;;;;;;19.96;41.08;98514.19;5051048;28;20567;-76
2020/12/31 09:34:16;;;;;;;4.28;1.20;;;;;;;19.97;41.05;98508.03;5049772;28;20062;-75
2020/12/31 09:36:42;;;;;;;6.10;1.00;;;;;;;19.93;41.09;98516.03;5049837;28;20082;-77
2020/12/31 09:39:07;;;;;;;3.10;0.80;;;;;;;19.96;41.17;98509.81;5051172;28;20170;-75
2020/12/31 09:41:33;;;;;;;5.22;1.30;;;;;;;20.00;41.00;98516.63;5050119;28;20041;-74
2020/12/31 09:43:59;;;;;;;3.35;1.13;;;;;;;19.99;41.51;98522.81;5050537;28;20040;-79
2020/12/31 09:46:25;;;;;;;2.85;1.10;;;;;;;19.98;41.30;98517.63;5051218;28;20557;-79
2020/12/31 09:48:51;;;;;;;4.07;0.95;;;;;;;19.99;41.32;98522.81;5049708;28;20151;-75
2020/12/31 09:51:17;;;;;;;6.90;1.45;;;;;;;20.00;41.43;98532.41;5050598;28;20132;-77
2020/12/31 09:53:43;;;;;;;4.60;1.10;;;;;;;19.99;41.30;98533.34;5049716;28;20121;-76
2020/12/31 09:56:08;;;;;;;4.97;1.08;;;;;;;19.97;41.46;98521.16;5050167;28;20182;-76
2020/12/31 09:58:34;;;;;;;4.35;1.00;;;;;;;19.97;41.46;98519.41;5049402;28;20037;-76
2020/12/31 10:01:02;;;;;;;5.95;1.27;;;;;;;19.98;41.66;98523.75;5048251;28;20028;-75
2020/12/31 10:03:28;;;;;;;5.47;1.00;;;;;;;20.00;41.69;98521.91;5050309;28;20082;-78
2020/12/31 10:05:53;;;;;;;7.82;1.88;;;;;;;19.99;41.85;98519.31;5049134;28;20506;-77
2020/12/31 10:08:19;;;;;;;4.53;1.38;;;;;;;19.99;41.93;98529.84;5049535;28;20047;-75
2020/12/31 10:10:45;;;;;;;4.35;1.02;;;;;;;19.99;41.71;98522.81;5050162;28;20029;-79
2020/12/31 10:13:11;;;;;;;6.25;1.17;;;;;;;20.00;41.88;98526.28;5048600;28;20041;-76
2020/12/31 10:15:37;;;;;;;3.67;1.23;;;;;;;20.03;41.81;98526.16;5050008;28;20032;-77
2020/12/31 10:18:02;;;;;;;36.17;2.38;;;;;;;20.00;42.20;98521.03;5049171;28;20497;-77
2020/12/31 10:20:27;;;;;;;5.53;1.30;;;;;;;19.99;41.83;98520.19;5048993;28;20107;-74
2020/12/31 10:22:53;;;;;;;8.25;1.75;;;;;;;20.00;42.17;98524.53;5050537;28;20037;-78
2020/12/31 10:25:18;;;;;;;14.00;2.15;;;;;;;20.01;42.22;98515.69;5050502;28;20037;-81
2020/12/31 10:27:44;;;;;;;6.05;1.52;;;;;;;20.03;42.12;98513.00;5032429;28;20033;-76
2020/12/31 10:30:09;;;;;;;4.70;1.70;;;;;;;20.03;42.36;98510.38;5050392;28;20146;-74
2020/12/31 10:32:34;;;;;;;13.98;1.83;;;;;;;20.02;42.31;98511.28;5048910;28;20059;-76
2020/12/31 10:35:00;;;;;;;6.07;1.13;;;;;;;20.00;42.09;98506.13;5049444;28;20045;-76
2020/12/31 10:37:26;;;;;;;3.40;1.00;;;;;;;20.00;42.36;98515.78;5049669;28;20489;-76
2020/12/31 10:39:51;;;;;;;8.02;2.00;;;;;;;19.97;42.36;98506.25;5049700;28;20040;-75
2020/12/31 10:42:17;;;;;;;6.75;1.75;;;;;;;19.96;42.20;98504.56;5031888;28;20056;-76
2020/12/31 10:44:42;;;;;;;13.27;2.10;;;;;;;19.96;42.37;98501.94;5050657;28;20033;-79
2020/12/31 10:47:07;;;;;;;4.68;1.25;;;;;;;19.94;42.21;98501.13;5050411;28;20037;-78
2020/12/31 10:49:33;;;;;;;2.97;1.10;;;;;;;19.93;42.12;98488.91;5050346;28;20044;-76
2020/12/31 10:51:58;;;;;;;4.32;1.40;;;;;;;19.95;42.06;98487.06;5049771;28;20094;-74
2020/12/31 10:54:24;;;;;;;7.78;1.20;;;;;;;19.96;41.94;98491.41;5050403;28;20033;-77
2020/12/31 10:56:49;;;;;;;3.40;1.20;;;;;;;19.98;42.13;98493.94;5050053;28;20029;-75
2020/12/31 10:59:15;;;;;;;4.05;1.25;;;;;;;19.94;41.97;98495.88;5050383;28;20834;-77
2020/12/31 11:01:41;;;;;;;2.50;1.25;;;;;;;19.91;41.82;98494.25;5049569;28;20559;-73
2020/12/31 11:04:06;;;;;;;3.90;1.20;;;;;;;19.91;41.88;98496.03;5050092;28;20033;-75
2020/12/31 11:06:31;;;;;;;4.63;1.15;;;;;;;19.91;41.56;98493.41;5049712;28;20037;-75
2020/12/31 11:08:57;;;;;;;3.00;1.25;;;;;;;19.88;41.54;98485.66;5049881;28;20037;-74
2020/12/31 11:11:29;;;;;;;3.30;1.25;;;;;;;19.86;41.49;98490.09;5050169;28;20037;-73
2020/12/31 11:13:55;;;;;;;7.60;1.45;;;;;;;19.80;41.61;98493.03;5049726;28;20494;-78
2020/12/31 11:16:21;;;;;;;3.63;1.40;;;;;;;19.76;41.44;98489.69;5049628;28;20131;-75
2020/12/31 11:18:47;;;;;;;5.18;1.77;;;;;;;19.73;41.59;98488.03;5048665;28;20155;-74
2020/12/31 11:21:15;;;;;;;5.47;1.10;;;;;;;19.73;41.33;98489.81;5049236;28;20502;-74
2020/12/31 11:23:41;;;;;;;5.10;1.60;;;;;;;19.71;41.32;98482.00;5048905;28;20114;-76
2020/12/31 11:26:14;;;;;;;3.03;1.77;;;;;;;19.73;41.23;98485.41;5047991;28;20037;-74
2020/12/31 11:28:41;;;;;;;4.10;1.58;;;;;;;19.74;41.50;98488.91;5052416;28;20508;-76
2020/12/31 11:31:06;;;;;;;2.65;1.48;;;;;;;19.75;41.12;98490.63;5053135;28;20037;-75
2020/12/31 11:33:32;;;;;;;2.40;0.95;;;;;;;19.73;41.32;98490.66;5052189;28;20501;-74
2020/12/31 11:35:58;;;;;;;5.00;1.85;;;;;;;19.74;41.07;98487.13;5053026;28;20493;-78
2020/12/31 11:38:24;;;;;;;3.00;1.52;;;;;;;19.73;40.94;98488.03;5053589;28;20033;-75